Terminal Aerodrome Forecast
Issued by NWS Upton, NY

Home | Current Version | Previous Version | Text Only | Print | Product List | Glossary On
Versions: 1 2 3 4 5 6 7 8 9 10 11 12 13 14 15 16 17 18 19 20 21 22 23 24 25 26
000
FTUS41 KOKX 040603 RRA
TAFEWR
TAF
KEWR 040603Z 0406/0512 VRB04KT P6SM SCT050 BKN200
     FM041100 05007KT P6SM BKN025
     FM041600 09011G18KT P6SM BKN030
     FM042100 09010G18KT P6SM BKN040
     FM050200 07009KT P6SM BKN250=

USA.gov is the U.S. government's official web portal to all federal, state and local government web resources and services.